Frankfort, Maine
Current Conditions -  °F | °C
As of 9:50 AM on Thursday 23 Oct 2014 (Local Time) from KBGR Reporting Station
Light Rain Light Rain  
Wind Chill: 42°   Ceiling: 1000
Heat Index: 48°   Visibility: 7mi
Dew Point: 46°   Wind: 18mph
Humidity: 93%   Direction: 30°NNE
Pressure: 29.93"   Gusts: 25mph
Location:  44.61°N, 68.88°W
Report Text: KBGR 231350Z 03016G22KT 7SM -RA OVC010 09/08 A2993 RMK AO2 CIG 007V015 P0009
Loading
Personal Weather Stations






























Interactive Weather Map New forecast layout! Learn more

10-Day Weather Forecast

Advertisements
Track Severe Weather on mobile